Central Virginia Flyers


Central Virginia Flyers is a 10 member flying club based in Richmond, VA at Hanover County Airport (KOFP). We own N787AT, a 1977 Cessna 172 with 180hp conversion. If you are interested in membership, please contact Brenton at brenton@cvflyers.org.


Aviation Digital Data Service (ADDS)

Output produced by METARs form (0755 UTC 23 October 2014)
found at http://aviationweather.gov/adds/metars/
 
KOFP 230654Z AUTO 28005KT 9SM CLR 08/06 A2994 RMK AO2 SLP140 T00830061
KRIC 230654Z 29007KT 10SM CLR 11/06 A2993 RMK AO2 SLP138 T01060056
KRIC 230534Z 2306/2406 32012KT P6SM BKN040 
     FM231400 32014G22KT P6SM SCT050 
     FM232300 31009KT P6SM SKC